Peary, Virginia
Current Conditions -  °F | °C
As of 4:55 PM on Friday 28 Nov 2014 (Local Time) from KW75 Reporting Station
Clear Clear  
Wind Chill: 38°   Ceiling: Unl
Heat Index: 38°   Visibility: 10mi
Dew Point: 20°   Wind: 3mph
Humidity: 49%   Direction: 330°NNW
Pressure: 30.29"   Gusts: NA
Location:  37.3757°N, 76.2979°W
Report Text: KW75 282155Z AUTO 33003KT 10SM CLR 03/M06 A3029 RMK AO1 T00341064
Loading
Personal Weather Stations






























Interactive Weather Map New forecast layout! Learn more

10-Day Weather Forecast

Advertisements
Track Severe Weather on mobile